Terminal Aerodrome Forecast
Issued by NWS

Home | Current Version | Previous Version | Graphics & Text | Print | Product List | Glossary Off
Versions: 1 2 3 4 5 6 7 8 9 10 11 12 13

000
FTUS43 KFGF 051700
TAFBJI
TAF
KBJI 051724Z 0518/0618 14013G23KT P6SM SKC
     FM060100 13009KT P6SM SKC
     FM060900 12008KT P6SM BKN080=

USA.gov is the U.S. government's official web portal to all federal, state and local government web resources and services.